Klagenfurt Airport LOWK

Flugplatz Daten

Name: Klagenfurt Airport

Ident: LOWK

Lat: 46,64250183

Long: 14,33769989

Platzhöhe: 1470 ft

IataCode: KLU

City: Klagenfurt am Wörthersee

Homepage: http://www.klagenfurt-airport.com/

Metar

2021/08/02 07:50
LOWK 020750Z 33003KT 300V010 9999 FEW012 BKN078 17/13 Q1016 NOSIG

Taf

2021/08/02 06:22
TAF LOWK 020515Z 0206/0306 VRB04KT 9999 FEW060 TX20/0215Z TN13/0304Z
TEMPO 0210/0223 -SHRA FEW060CB PROB40
TEMPO 0215/0222 VRB15KT TSRA SHRA PROB30
TEMPO 0302/0306 2000 BCFG BKN006

Webcams

Airport
Gewünschte Webcam nicht vorhanden? Dann fügen Sie eine hinzu. Sie wird dann so schnell wie möglich freigeschaltet
Url: Title: